createdAt,value
2023-03-08T00:02:24.789Z,21.20
2023-03-08T00:04:55.458Z,23.93
2023-03-08T00:07:23.256Z,22.20
2023-03-08T00:09:50.394Z,27.57
2023-03-08T00:12:19.455Z,20.37
2023-03-08T00:14:46.806Z,23.67
2023-03-08T00:17:13.923Z,19.63
2023-03-08T00:19:41.203Z,20.30
2023-03-08T00:22:08.681Z,22.40
2023-03-08T00:24:35.837Z,21.87
2023-03-08T00:27:03.250Z,21.40
2023-03-08T00:29:31.171Z,21.63
2023-03-08T00:31:58.282Z,22.67
2023-03-08T00:34:25.416Z,21.37
2023-03-08T00:36:52.640Z,22.10
2023-03-08T00:39:19.842Z,27.40
2023-03-08T00:41:47.001Z,22.00
2023-03-08T00:44:14.105Z,25.20
2023-03-08T00:46:41.267Z,27.70
2023-03-08T00:49:08.958Z,27.47
2023-03-08T00:51:36.068Z,23.57
2023-03-08T00:54:03.181Z,23.63
2023-03-08T00:56:30.325Z,29.20
2023-03-08T00:58:57.371Z,24.00
2023-03-08T01:01:24.582Z,24.37
2023-03-08T01:03:52.517Z,22.40
2023-03-08T01:06:19.604Z,22.33
2023-03-08T01:08:46.924Z,32.60
2023-03-08T01:11:26.127Z,25.50
2023-03-08T01:13:54.351Z,21.20
2023-03-08T01:16:27.968Z,19.53
2023-03-08T01:18:55.555Z,21.60
2023-03-08T01:21:23.013Z,22.83
2023-03-08T01:23:50.980Z,24.53
2023-03-08T01:26:21.094Z,21.97
2023-03-08T01:28:48.568Z,23.90
2023-03-08T01:31:18.150Z,29.87
2023-03-08T01:33:45.800Z,23.23
2023-03-08T01:36:17.277Z,22.27
2023-03-08T01:38:45.509Z,22.30
2023-03-08T01:41:30.699Z,22.93
2023-03-08T01:43:57.987Z,25.07
2023-03-08T01:46:33.612Z,24.90
2023-03-08T01:49:27.279Z,23.00
2023-03-08T01:52:30.033Z,25.37
2023-03-08T01:55:06.033Z,23.40
2023-03-08T01:58:02.306Z,24.17
2023-03-08T02:00:29.520Z,23.57
2023-03-08T02:03:05.031Z,19.10
2023-03-08T02:05:33.736Z,20.40
2023-03-08T02:08:13.157Z,20.67
2023-03-08T02:10:41.417Z,21.77
2023-03-08T02:13:10.069Z,22.90
2023-03-08T02:15:40.769Z,27.70
2023-03-08T02:18:08.187Z,22.97
2023-03-08T02:20:40.478Z,24.53
2023-03-08T02:23:13.362Z,23.03
2023-03-08T02:25:50.116Z,26.07
2023-03-08T02:28:17.702Z,28.70
2023-03-08T02:30:44.824Z,26.37
2023-03-08T02:33:11.892Z,25.80
2023-03-08T02:38:27.286Z,27.47
2023-03-08T02:40:54.389Z,24.07
2023-03-08T02:43:21.494Z,23.07
2023-03-08T02:45:48.945Z,25.00
2023-03-08T02:48:16.369Z,26.67
2023-03-08T02:50:43.816Z,22.83
2023-03-08T02:53:11.110Z,27.07
2023-03-08T02:55:38.309Z,25.73
2023-03-08T02:58:10.746Z,25.37
2023-03-08T03:00:38.578Z,24.00
2023-03-08T03:03:05.958Z,20.77
2023-03-08T03:05:33.105Z,24.60
2023-03-08T03:08:03.311Z,28.83
2023-03-08T03:10:30.726Z,23.63
2023-03-08T03:12:57.868Z,27.80
2023-03-08T03:15:28.965Z,24.20
2023-03-08T03:17:59.073Z,26.97
2023-03-08T03:20:26.252Z,26.10
2023-03-08T03:22:53.402Z,26.07
2023-03-08T03:25:25.857Z,26.50
2023-03-08T03:27:55.300Z,26.67
2023-03-08T03:30:23.304Z,25.73
2023-03-08T03:32:51.084Z,20.37
2023-03-08T03:35:23.931Z,28.87
2023-03-08T03:37:51.227Z,26.23
2023-03-08T03:40:18.674Z,23.40
2023-03-08T03:42:50.070Z,24.33
2023-03-08T03:45:18.500Z,27.03
2023-03-08T03:47:47.340Z,24.47
2023-03-08T03:50:14.833Z,25.00
2023-03-08T03:52:55.920Z,28.20
2023-03-08T03:55:23.201Z,25.83
2023-03-08T03:57:50.883Z,26.40
2023-03-08T04:00:19.090Z,24.53
2023-03-08T04:02:54.089Z,28.57
2023-03-08T04:05:22.171Z,26.70
2023-03-08T04:07:52.452Z,25.07
2023-03-08T04:10:22.664Z,31.77
2023-03-08T04:12:52.327Z,26.07
2023-03-08T04:15:21.208Z,24.73
2023-03-08T04:17:48.413Z,23.33
2023-03-08T04:20:18.908Z,26.00
2023-03-08T04:22:53.592Z,24.67
2023-03-08T04:25:27.089Z,24.57
2023-03-08T04:27:58.886Z,28.67
2023-03-08T04:30:26.388Z,26.57
2023-03-08T04:32:55.033Z,26.53
2023-03-08T04:35:26.263Z,24.27
2023-03-08T04:37:54.732Z,19.07
2023-03-08T04:40:24.617Z,21.63
2023-03-08T04:42:56.955Z,21.13
2023-03-08T04:45:33.036Z,20.23
2023-03-08T04:48:04.380Z,20.97
2023-03-08T04:50:32.937Z,20.03
2023-03-08T04:53:00.071Z,21.50
2023-03-08T04:55:28.486Z,20.03
2023-03-08T04:57:55.622Z,19.10
2023-03-08T05:00:23.710Z,20.00
2023-03-08T05:02:51.418Z,19.37
2023-03-08T05:05:19.483Z,16.97
2023-03-08T05:07:47.154Z,21.47
2023-03-08T05:10:14.319Z,17.90
2023-03-08T05:12:42.098Z,16.90
2023-03-08T05:15:10.335Z,19.37
2023-03-08T05:17:37.626Z,18.40
2023-03-08T05:20:05.701Z,18.90
2023-03-08T05:22:55.086Z,15.83
2023-03-08T05:25:25.250Z,17.10
2023-03-08T05:27:52.406Z,16.47
2023-03-08T05:30:21.984Z,16.47
2023-03-08T05:32:50.280Z,20.67
2023-03-08T05:35:17.486Z,14.87
2023-03-08T05:37:44.821Z,15.73
2023-03-08T05:40:12.973Z,20.47
2023-03-08T05:42:43.439Z,13.87
2023-03-08T05:45:11.895Z,24.73
2023-03-08T05:47:40.462Z,14.13
2023-03-08T05:50:10.288Z,15.77
2023-03-08T05:52:42.589Z,13.53
2023-03-08T05:55:13.511Z,12.63
2023-03-08T05:57:47.926Z,15.17
2023-03-08T06:00:16.498Z,15.17
2023-03-08T06:02:43.666Z,17.10
2023-03-08T06:05:12.348Z,13.97
2023-03-08T06:07:40.856Z,18.30
2023-03-08T06:10:11.541Z,16.07
2023-03-08T06:12:39.245Z,15.00
2023-03-08T06:15:09.771Z,13.40
2023-03-08T06:17:38.327Z,13.93
2023-03-08T06:20:06.389Z,17.47
2023-03-08T06:22:36.114Z,14.40
2023-03-08T06:25:04.141Z,17.80
2023-03-08T06:27:35.038Z,14.83
2023-03-08T06:30:08.741Z,14.13
2023-03-08T06:32:37.790Z,11.50
2023-03-08T06:35:06.892Z,17.03
2023-03-08T06:37:40.092Z,13.93
2023-03-08T06:40:09.326Z,13.43
2023-03-08T06:42:41.588Z,12.40
2023-03-08T06:45:12.724Z,13.47
2023-03-08T06:47:39.814Z,13.37
2023-03-08T06:50:13.106Z,14.37
2023-03-08T06:52:43.539Z,13.13
2023-03-08T06:55:11.753Z,15.93
2023-03-08T06:57:39.176Z,13.67
2023-03-08T07:00:09.715Z,12.23
2023-03-08T07:02:36.828Z,12.10
2023-03-08T07:05:04.144Z,14.30
2023-03-08T07:07:35.727Z,21.73
2023-03-08T07:10:04.009Z,13.03
2023-03-08T07:12:36.739Z,12.50
2023-03-08T07:15:04.234Z,13.87
2023-03-08T07:17:31.685Z,14.53
2023-03-08T07:19:58.817Z,15.87
2023-03-08T07:22:25.855Z,13.53
2023-03-08T07:24:53.032Z,18.27
2023-03-08T07:27:20.099Z,20.03
2023-03-08T07:29:47.258Z,17.13
2023-03-08T07:32:14.394Z,12.47
2023-03-08T07:34:41.573Z,19.37
2023-03-08T07:37:26.601Z,15.47
2023-03-08T07:39:54.015Z,13.60
2023-03-08T07:42:21.084Z,14.20
2023-03-08T07:44:54.504Z,12.53
2023-03-08T07:47:21.902Z,13.47
2023-03-08T07:49:49.012Z,12.47
2023-03-08T07:52:16.114Z,14.67
2023-03-08T07:54:44.090Z,12.57
2023-03-08T07:57:14.333Z,11.73
2023-03-08T07:59:42.455Z,11.83
2023-03-08T08:02:13.756Z,11.83
2023-03-08T08:04:41.632Z,13.83
2023-03-08T08:07:13.005Z,12.07
2023-03-08T08:09:40.264Z,13.70
2023-03-08T08:12:07.732Z,10.57
2023-03-08T08:14:34.985Z,8.87
2023-03-08T08:17:02.137Z,14.70
2023-03-08T08:19:29.760Z,11.67
2023-03-08T08:21:56.817Z,8.60
2023-03-08T08:24:23.940Z,10.77
2023-03-08T08:26:51.037Z,8.80
2023-03-08T08:29:18.118Z,9.30
2023-03-08T08:31:45.242Z,8.57
2023-03-08T08:34:12.498Z,6.87
2023-03-08T08:36:39.634Z,10.90
2023-03-08T08:39:06.795Z,8.07
2023-03-08T08:41:33.982Z,8.10
2023-03-08T08:44:01.247Z,8.80
2023-03-08T08:46:28.513Z,6.87
2023-03-08T08:48:57.792Z,5.40
2023-03-08T08:51:24.904Z,5.83
2023-03-08T08:53:52.847Z,5.37
2023-03-08T08:56:28.652Z,4.23
2023-03-08T08:59:01.729Z,8.30
2023-03-08T09:01:31.840Z,7.93
2023-03-08T09:03:59.603Z,10.47
2023-03-08T09:06:28.129Z,5.63
2023-03-08T09:08:57.546Z,6.17
2023-03-08T09:11:26.330Z,7.73
2023-03-08T09:13:53.983Z,3.70
2023-03-08T09:16:29.560Z,3.50
2023-03-08T09:18:58.213Z,2.80
2023-03-08T09:21:26.708Z,5.13
2023-03-08T09:23:54.385Z,2.70
2023-03-08T09:26:21.604Z,3.23
2023-03-08T09:28:48.702Z,3.30
2023-03-08T09:31:17.651Z,7.43
2023-03-08T09:33:52.349Z,4.93
2023-03-08T09:36:20.155Z,5.03
2023-03-08T09:38:49.000Z,3.03
2023-03-08T09:41:53.039Z,4.77
2023-03-08T09:45:07.559Z,2.30
2023-03-08T09:48:21.263Z,8.43
2023-03-08T09:50:51.741Z,4.30
2023-03-08T09:53:38.765Z,2.33
2023-03-08T09:56:28.524Z,2.87
2023-03-08T09:59:06.114Z,2.27
2023-03-08T10:01:41.975Z,4.87
2023-03-08T10:04:22.191Z,2.13
2023-03-08T10:07:34.092Z,2.10
2023-03-08T10:10:27.163Z,2.33
2023-03-08T10:13:23.559Z,2.97
2023-03-08T10:15:53.499Z,1.57
2023-03-08T10:19:25.149Z,4.50
2023-03-08T10:21:53.516Z,3.90
2023-03-08T10:24:34.064Z,3.77
2023-03-08T10:27:18.920Z,1.53
2023-03-08T10:29:53.831Z,1.10
2023-03-08T10:32:22.754Z,1.80
2023-03-08T10:34:50.253Z,2.57
2023-03-08T10:37:17.459Z,1.90
2023-03-08T10:39:54.875Z,1.43
2023-03-08T10:42:24.225Z,2.97
2023-03-08T10:45:17.054Z,1.63
2023-03-08T10:48:17.240Z,1.03
2023-03-08T10:50:44.395Z,2.27
2023-03-08T10:53:19.211Z,1.50
2023-03-08T10:55:52.748Z,3.27
2023-03-08T10:58:37.785Z,0.87
2023-03-08T11:01:30.986Z,0.93
2023-03-08T11:04:19.100Z,2.23
2023-03-08T11:06:46.778Z,2.57
2023-03-08T11:09:31.900Z,1.03
2023-03-08T11:12:00.516Z,2.03
2023-03-08T11:14:29.924Z,1.40
2023-03-08T11:17:15.986Z,2.50
2023-03-08T11:20:27.884Z,0.83
2023-03-08T11:23:33.193Z,1.80
2023-03-08T11:26:24.391Z,0.70
2023-03-08T11:29:31.123Z,1.97
2023-03-08T11:36:17.078Z,3.63
2023-03-08T11:38:57.510Z,0.63
2023-03-08T11:41:50.121Z,1.00
2023-03-08T11:45:00.099Z,2.27
2023-03-08T11:48:05.971Z,0.80
2023-03-08T11:51:09.623Z,0.97
2023-03-08T12:02:30.370Z,1.73
2023-03-08T12:05:18.268Z,1.13
2023-03-08T12:08:12.019Z,0.67
2023-03-08T12:10:50.030Z,1.23
2023-03-08T12:13:52.515Z,1.60
2023-03-08T12:16:31.474Z,1.30
2023-03-08T12:19:29.091Z,0.93
2023-03-08T12:22:12.849Z,0.83
2023-03-08T12:28:27.920Z,3.23
2023-03-08T12:31:41.541Z,0.60
2023-03-08T12:34:42.420Z,1.33
2023-03-08T12:37:24.280Z,1.10
2023-03-08T12:40:47.202Z,0.80
2023-03-08T12:43:32.193Z,0.80
2023-03-08T12:46:17.442Z,0.50
2023-03-08T12:48:50.013Z,0.80
2023-03-08T12:51:26.449Z,1.87
2023-03-08T12:54:04.542Z,0.93
2023-03-08T12:56:52.920Z,1.47
2023-03-08T12:59:38.505Z,1.03
2023-03-08T13:02:37.865Z,0.87
2023-03-08T13:05:33.493Z,0.87
2023-03-08T13:08:22.890Z,1.23
2023-03-08T13:11:15.133Z,1.90
2023-03-08T13:13:58.086Z,0.70
2023-03-08T13:16:37.704Z,1.00
2023-03-08T13:19:34.390Z,1.10
2023-03-08T13:22:24.039Z,1.27
2023-03-08T13:25:01.500Z,1.47
2023-03-08T13:28:06.445Z,1.17
2023-03-08T13:30:38.996Z,1.80
2023-03-08T13:33:14.858Z,0.80
2023-03-08T13:35:42.114Z,0.80
2023-03-08T13:38:21.514Z,1.93
2023-03-08T13:40:56.464Z,2.23
2023-03-08T13:43:26.043Z,4.93
2023-03-08T13:45:56.621Z,4.23
2023-03-08T13:48:27.373Z,2.87
2023-03-08T13:50:54.545Z,0.90
2023-03-08T13:53:28.409Z,1.63
2023-03-08T13:55:59.054Z,2.17
2023-03-08T13:58:33.638Z,3.20
2023-03-08T14:01:16.175Z,1.60
2023-03-08T14:03:45.369Z,1.80
2023-03-08T14:06:31.279Z,1.63
2023-03-08T14:09:00.827Z,1.30
2023-03-08T14:11:34.222Z,1.83
2023-03-08T14:14:04.730Z,4.70
2023-03-08T14:16:38.319Z,1.97
2023-03-08T14:19:25.880Z,2.00
2023-03-08T14:22:32.231Z,6.83
2023-03-08T14:25:05.858Z,1.30
2023-03-08T14:27:41.152Z,1.53
2023-03-08T14:30:27.082Z,3.80
2023-03-08T14:33:20.238Z,2.37
2023-03-08T14:36:00.426Z,2.57
2023-03-08T14:38:30.857Z,1.30
2023-03-08T14:41:01.195Z,2.30
2023-03-08T14:43:28.636Z,1.40
2023-03-08T14:46:04.948Z,5.37
2023-03-08T14:48:34.547Z,2.60
2023-03-08T14:51:07.104Z,2.03
2023-03-08T14:53:37.553Z,1.27
2023-03-08T14:56:23.294Z,3.47
2023-03-08T14:58:54.270Z,3.17
2023-03-08T15:01:34.261Z,2.30
2023-03-08T15:04:02.556Z,3.03
2023-03-08T15:06:36.354Z,2.13
2023-03-08T15:09:07.414Z,1.17
2023-03-08T15:11:35.262Z,1.30
2023-03-08T15:14:03.188Z,2.97
2023-03-08T15:16:30.677Z,2.23
2023-03-08T15:18:58.098Z,3.90
2023-03-08T15:21:27.492Z,1.97
2023-03-08T15:23:55.556Z,6.80
2023-03-08T15:26:26.803Z,2.03
2023-03-08T15:28:55.073Z,2.03
2023-03-08T15:31:22.426Z,3.80
2023-03-08T15:33:50.414Z,2.57
2023-03-08T15:36:19.467Z,2.20
2023-03-08T15:38:47.010Z,2.03
2023-03-08T15:41:15.656Z,1.30
2023-03-08T15:43:43.744Z,2.53
2023-03-08T15:46:13.892Z,2.80
2023-03-08T15:48:42.396Z,2.37
2023-03-08T15:51:18.488Z,1.90
2023-03-08T15:53:46.321Z,2.20
2023-03-08T15:56:13.480Z,11.80
2023-03-08T15:58:43.375Z,3.47
2023-03-08T16:01:12.107Z,2.23
2023-03-08T16:03:39.453Z,2.90
2023-03-08T16:06:10.856Z,3.40
2023-03-08T16:08:38.738Z,3.87
2023-03-08T16:11:10.434Z,3.20
2023-03-08T16:13:37.660Z,4.03
2023-03-08T16:16:05.609Z,4.37
2023-03-08T16:18:34.288Z,4.10
2023-03-08T16:21:01.477Z,2.00
2023-03-08T16:23:28.600Z,4.03
2023-03-08T16:26:14.559Z,3.87
2023-03-08T16:28:44.749Z,4.00
2023-03-08T16:31:12.465Z,2.20
2023-03-08T16:33:39.972Z,2.70
2023-03-08T16:36:07.631Z,2.57
2023-03-08T16:38:35.077Z,5.67
2023-03-08T16:41:12.833Z,4.60
2023-03-08T16:43:47.316Z,4.13
2023-03-08T16:46:18.629Z,5.03
2023-03-08T16:48:49.426Z,2.87
2023-03-08T16:51:19.039Z,3.23
2023-03-08T16:53:46.298Z,3.70
2023-03-08T16:56:21.749Z,3.53
2023-03-08T16:58:48.888Z,6.13
2023-03-08T17:01:17.795Z,3.33
2023-03-08T17:03:45.027Z,4.50
2023-03-08T17:06:13.983Z,2.53
2023-03-08T17:08:41.492Z,3.57
2023-03-08T17:11:21.486Z,5.13
2023-03-08T17:13:53.630Z,2.60
2023-03-08T17:16:23.759Z,2.70
2023-03-08T17:18:51.717Z,2.50
2023-03-08T17:21:20.240Z,4.27
2023-03-08T17:23:48.121Z,5.77
2023-03-08T17:26:16.863Z,5.23
2023-03-08T17:28:44.379Z,6.50
2023-03-08T17:31:14.515Z,6.00
2023-03-08T17:33:42.808Z,6.00
2023-03-08T17:36:11.097Z,4.50
2023-03-08T17:38:38.216Z,4.73
2023-03-08T17:41:11.304Z,6.90
2023-03-08T17:43:41.061Z,6.83
2023-03-08T17:46:23.665Z,5.33
2023-03-08T17:48:52.924Z,3.30
2023-03-08T17:51:29.631Z,3.63
2023-03-08T17:53:58.159Z,3.97
2023-03-08T17:56:29.657Z,2.83
2023-03-08T17:58:58.292Z,3.87
2023-03-08T18:01:27.707Z,2.83
2023-03-08T18:03:55.630Z,3.23
2023-03-08T18:06:33.269Z,3.07
2023-03-08T18:09:05.929Z,3.03
2023-03-08T18:11:37.719Z,3.33
2023-03-08T18:14:11.111Z,4.60
2023-03-08T18:16:39.731Z,2.43
2023-03-08T18:19:07.318Z,2.60
2023-03-08T18:21:35.592Z,2.10
2023-03-08T18:24:02.657Z,1.70
2023-03-08T18:26:29.811Z,2.20
2023-03-08T18:28:56.902Z,2.47
2023-03-08T18:31:26.324Z,1.40
2023-03-08T18:33:55.030Z,3.20
2023-03-08T18:36:23.472Z,2.43
2023-03-08T18:38:50.765Z,1.57
2023-03-08T18:41:28.057Z,2.43
2023-03-08T18:43:56.842Z,1.27
2023-03-08T18:46:29.066Z,2.70
2023-03-08T18:49:06.945Z,1.97
2023-03-08T18:51:36.164Z,2.53
2023-03-08T18:54:03.590Z,1.73
2023-03-08T18:56:31.582Z,1.73
2023-03-08T18:59:00.656Z,3.63
2023-03-08T19:01:30.471Z,1.73
2023-03-08T19:04:04.153Z,2.10
2023-03-08T19:06:31.277Z,1.93
2023-03-08T19:08:58.327Z,2.40
2023-03-08T19:11:28.367Z,2.53
2023-03-08T19:13:55.744Z,2.00
2023-03-08T19:16:28.618Z,2.27
2023-03-08T19:18:59.214Z,2.50
2023-03-08T19:21:29.738Z,4.87
2023-03-08T19:23:57.681Z,3.10
2023-03-08T19:26:41.149Z,1.60
2023-03-08T19:29:14.951Z,2.57
2023-03-08T19:31:45.255Z,3.60
2023-03-08T19:34:13.751Z,2.70
2023-03-08T19:36:42.564Z,1.77
2023-03-08T19:39:14.783Z,1.70
2023-03-08T19:41:42.783Z,2.10
2023-03-08T19:44:10.521Z,1.93
2023-03-08T19:46:38.747Z,2.70
2023-03-08T19:49:07.777Z,1.90
2023-03-08T19:51:35.919Z,1.47
2023-03-08T19:54:03.349Z,2.30
2023-03-08T19:56:30.529Z,2.33
2023-03-08T19:58:57.812Z,1.87
2023-03-08T20:01:25.385Z,3.60
2023-03-08T20:03:53.267Z,4.70
2023-03-08T20:06:32.953Z,1.90
2023-03-08T20:09:01.982Z,2.97
2023-03-08T20:11:29.612Z,2.50
2023-03-08T20:13:56.884Z,2.23
2023-03-08T20:16:25.365Z,1.87
2023-03-08T20:18:55.460Z,3.27
2023-03-08T20:21:24.998Z,3.07
2023-03-08T20:23:55.476Z,1.60
2023-03-08T20:26:28.138Z,2.13
2023-03-08T20:28:56.750Z,3.37
2023-03-08T20:31:24.776Z,3.07
2023-03-08T20:33:52.296Z,1.90
2023-03-08T20:36:19.799Z,2.40
2023-03-08T20:38:47.451Z,2.93
2023-03-08T20:41:17.363Z,3.50
2023-03-08T20:43:45.989Z,3.60
2023-03-08T20:46:16.178Z,4.43
2023-03-08T20:48:44.968Z,1.97
2023-03-08T20:51:14.757Z,3.23
2023-03-08T20:53:42.228Z,2.70
2023-03-08T20:56:14.235Z,5.53
2023-03-08T20:58:42.000Z,3.33
2023-03-08T21:01:18.002Z,2.40
2023-03-08T21:03:46.015Z,1.83
2023-03-08T21:06:21.421Z,4.63
2023-03-08T21:08:49.832Z,1.90
2023-03-08T21:11:17.602Z,2.73
2023-03-08T21:13:47.322Z,3.00
2023-03-08T21:16:15.973Z,1.77
2023-03-08T21:18:45.939Z,2.70
2023-03-08T21:21:21.830Z,6.83
2023-03-08T21:23:52.631Z,2.70
2023-03-08T21:26:21.056Z,4.20
2023-03-08T21:28:48.469Z,3.60
2023-03-08T21:31:15.958Z,3.47
2023-03-08T21:33:43.237Z,4.93
2023-03-08T21:36:11.395Z,1.93
2023-03-08T21:38:38.872Z,1.77
2023-03-08T21:41:06.442Z,6.50
2023-03-08T21:43:33.862Z,1.60
2023-03-08T21:46:03.999Z,2.70
2023-03-08T21:48:31.195Z,1.87
2023-03-08T21:50:58.285Z,1.63
2023-03-08T21:53:25.475Z,1.53
2023-03-08T21:55:52.573Z,3.07
2023-03-08T21:58:19.683Z,2.20
2023-03-08T22:00:46.766Z,1.30
2023-03-08T22:03:14.137Z,2.60
2023-03-08T22:05:41.250Z,3.10
2023-03-08T22:08:08.633Z,4.90
2023-03-08T22:10:35.671Z,3.27
2023-03-08T22:13:02.784Z,3.77
2023-03-08T22:15:29.877Z,4.13
2023-03-08T22:17:57.234Z,4.07
2023-03-08T22:20:24.459Z,5.07
2023-03-08T22:22:51.589Z,3.00
2023-03-08T22:25:18.982Z,3.10
2023-03-08T22:27:46.024Z,2.90
2023-03-08T22:30:13.651Z,3.43
2023-03-08T22:32:42.108Z,3.47
2023-03-08T22:35:11.012Z,3.23
2023-03-08T22:37:38.859Z,5.50
2023-03-08T22:40:10.758Z,2.80
2023-03-08T22:42:38.032Z,3.80
2023-03-08T22:45:05.794Z,4.47
2023-03-08T22:47:32.938Z,6.27
2023-03-08T22:50:00.045Z,3.47
2023-03-08T22:52:27.416Z,2.90
2023-03-08T22:54:54.516Z,3.07
2023-03-08T22:57:22.098Z,2.40
2023-03-08T22:59:49.564Z,4.23
2023-03-08T23:02:16.675Z,3.60
2023-03-08T23:04:43.759Z,3.60
2023-03-08T23:07:10.878Z,3.90
2023-03-08T23:09:37.978Z,4.10
2023-03-08T23:12:06.215Z,4.10
2023-03-08T23:14:34.681Z,3.33
2023-03-08T23:17:01.880Z,2.90
2023-03-08T23:19:29.045Z,4.90
2023-03-08T23:21:56.486Z,3.10
2023-03-08T23:24:23.635Z,2.50
2023-03-08T23:26:50.752Z,3.67
2023-03-08T23:29:17.821Z,2.63
2023-03-08T23:31:46.089Z,2.80
2023-03-08T23:34:13.362Z,2.90
2023-03-08T23:36:40.575Z,2.33
2023-03-08T23:39:08.341Z,2.87
2023-03-08T23:41:35.494Z,1.63
2023-03-08T23:44:04.007Z,4.63
2023-03-08T23:46:32.049Z,2.10
2023-03-08T23:49:01.104Z,3.83
2023-03-08T23:51:31.595Z,3.60
2023-03-08T23:54:00.849Z,2.53
2023-03-08T23:56:37.641Z,1.87
2023-03-08T23:59:18.466Z,3.60
